createdAt,value
2023-04-02T00:01:00.931Z,31.83
2023-04-02T00:03:44.019Z,32.17
2023-04-02T00:06:30.496Z,31.48
2023-04-02T00:09:02.748Z,33.22
2023-04-02T00:11:37.433Z,33.47
2023-04-02T00:14:13.539Z,32.95
2023-04-02T00:16:40.831Z,31.77
2023-04-02T00:19:19.581Z,35.95
2023-04-02T00:21:47.522Z,33.67
2023-04-02T00:24:17.794Z,37.55
2023-04-02T00:26:46.887Z,38.30
2023-04-02T00:29:15.760Z,41.33
2023-04-02T00:31:46.865Z,33.85
2023-04-02T00:34:31.917Z,41.75
2023-04-02T00:36:59.593Z,34.58
2023-04-02T00:39:29.629Z,38.35
2023-04-02T00:42:05.758Z,34.97
2023-04-02T00:44:45.498Z,40.15
2023-04-02T00:47:35.854Z,36.80
2023-04-02T00:50:29.142Z,41.63
2023-04-02T00:52:59.291Z,35.08
2023-04-02T00:55:32.601Z,43.95
2023-04-02T00:58:02.073Z,35.83
2023-04-02T01:00:29.432Z,38.33
2023-04-02T01:03:19.480Z,36.40
2023-04-02T01:06:10.815Z,36.17
2023-04-02T01:08:38.012Z,33.22
2023-04-02T01:11:19.618Z,32.22
2023-04-02T01:14:12.749Z,37.85
2023-04-02T01:17:00.524Z,38.63
2023-04-02T01:20:01.010Z,37.53
2023-04-02T01:22:52.988Z,37.55
2023-04-02T01:25:29.144Z,36.83
2023-04-02T01:28:25.317Z,35.53
2023-04-02T01:30:56.034Z,39.53
2023-04-02T01:33:28.377Z,34.72
2023-04-02T01:36:33.467Z,38.47
2023-04-02T01:39:06.310Z,39.47
2023-04-02T01:41:57.117Z,34.15
2023-04-02T01:44:38.892Z,34.88
2023-04-02T01:47:12.127Z,35.90
2023-04-02T01:49:40.361Z,39.85
2023-04-02T01:52:07.750Z,35.65
2023-04-02T01:54:40.867Z,39.78
2023-04-02T01:57:08.623Z,33.47
2023-04-02T01:59:35.975Z,30.65
2023-04-02T02:02:07.813Z,35.35
2023-04-02T02:04:37.954Z,37.42
2023-04-02T02:07:15.133Z,32.22
2023-04-02T02:09:45.617Z,36.53
2023-04-02T02:12:15.009Z,31.15
2023-04-02T02:17:24.271Z,32.00
2023-04-02T02:19:56.951Z,31.88
2023-04-02T02:22:37.649Z,30.98
2023-04-02T02:25:11.571Z,32.00
2023-04-02T02:28:04.222Z,35.95
2023-04-02T02:30:57.746Z,34.75
2023-04-02T02:33:29.162Z,32.13
2023-04-02T02:36:23.184Z,25.73
2023-04-02T02:39:20.496Z,28.85
2023-04-02T02:42:03.587Z,32.92
2023-04-02T02:44:35.316Z,31.33
2023-04-02T02:47:26.789Z,29.02
2023-04-02T02:49:58.999Z,33.83
2023-04-02T02:52:37.396Z,31.00
2023-04-02T02:55:22.939Z,31.85
2023-04-02T02:58:04.531Z,30.38
2023-04-02T03:00:39.407Z,30.58
2023-04-02T03:03:12.549Z,32.00
2023-04-02T03:05:41.742Z,30.00
2023-04-02T03:08:32.540Z,26.90
2023-04-02T03:11:06.490Z,36.97
2023-04-02T03:13:36.465Z,28.27
2023-04-02T03:16:11.477Z,27.60
2023-04-02T03:19:18.100Z,35.20
2023-04-02T03:22:09.429Z,26.95
2023-04-02T03:24:49.608Z,25.98
2023-04-02T03:27:36.269Z,35.15
2023-04-02T03:30:21.989Z,29.83
2023-04-02T03:32:52.767Z,31.02
2023-04-02T03:35:27.502Z,31.25
2023-04-02T03:38:13.284Z,28.58
2023-04-02T03:40:49.798Z,27.75
2023-04-02T03:43:25.372Z,32.00
2023-04-02T03:46:05.840Z,31.98
2023-04-02T03:49:23.420Z,27.80
2023-04-02T03:52:00.957Z,26.73
2023-04-02T03:54:28.778Z,25.95
2023-04-02T03:56:55.971Z,25.48
2023-04-02T03:59:47.243Z,23.10
2023-04-02T04:02:19.300Z,25.60
2023-04-02T04:04:48.789Z,23.95
2023-04-02T04:07:38.839Z,23.05
2023-04-02T04:10:08.814Z,24.75
2023-04-02T04:12:46.742Z,22.77
2023-04-02T04:15:21.514Z,25.25
2023-04-02T04:18:02.562Z,21.85
2023-04-02T04:20:37.243Z,24.05
2023-04-02T04:23:38.097Z,26.95
2023-04-02T04:26:31.251Z,26.65
2023-04-02T04:29:30.382Z,23.00
2023-04-02T04:32:09.226Z,23.50
2023-04-02T04:34:46.900Z,22.02
2023-04-02T04:37:33.820Z,30.20
2023-04-02T04:40:20.365Z,29.77
2023-04-02T04:42:53.413Z,25.25
2023-04-02T04:45:45.127Z,19.90
2023-04-02T04:48:14.979Z,24.35
2023-04-02T04:50:45.760Z,22.60
2023-04-02T04:53:19.960Z,22.48
2023-04-02T04:55:53.873Z,22.00
2023-04-02T04:58:27.133Z,21.23
2023-04-02T05:01:04.020Z,22.58
2023-04-02T05:03:46.365Z,21.25
2023-04-02T05:06:26.134Z,20.20
2023-04-02T05:08:59.570Z,25.00
2023-04-02T05:11:29.684Z,22.67
2023-04-02T05:14:15.502Z,20.77
2023-04-02T05:16:51.043Z,20.23
2023-04-02T05:19:23.734Z,23.27
2023-04-02T05:22:10.243Z,22.83
2023-04-02T05:25:07.314Z,21.10
2023-04-02T05:28:10.071Z,28.05
2023-04-02T05:30:46.743Z,22.33
2023-04-02T05:33:32.384Z,19.90
2023-04-02T05:36:12.391Z,18.35
2023-04-02T05:38:47.711Z,22.45
2023-04-02T05:41:36.806Z,21.55
2023-04-02T05:44:15.738Z,21.85
2023-04-02T05:46:51.408Z,23.40
2023-04-02T05:49:32.754Z,27.08
2023-04-02T05:52:03.691Z,23.10
2023-04-02T05:54:44.591Z,22.02
2023-04-02T05:57:21.567Z,21.13
2023-04-02T05:59:55.429Z,25.67
2023-04-02T06:02:33.661Z,25.30
2023-04-02T06:05:17.086Z,23.88
2023-04-02T06:07:55.570Z,24.45
2023-04-02T06:10:31.493Z,22.90
2023-04-02T06:13:03.916Z,25.17
2023-04-02T06:15:37.547Z,20.45
2023-04-02T06:18:24.195Z,23.27
2023-04-02T06:20:52.402Z,25.92
2023-04-02T06:23:40.119Z,24.02
2023-04-02T06:26:22.386Z,29.33
2023-04-02T06:29:18.638Z,29.85
2023-04-02T06:31:56.649Z,24.65
2023-04-02T06:34:27.927Z,21.00
2023-04-02T06:37:38.509Z,24.20
2023-04-02T06:40:44.003Z,20.73
2023-04-02T06:43:38.223Z,20.35
2023-04-02T06:46:39.041Z,21.92
2023-04-02T06:49:23.577Z,22.48
2023-04-02T06:51:56.942Z,23.13
2023-04-02T06:54:25.200Z,20.55
2023-04-02T06:56:56.888Z,23.52
2023-04-02T06:59:31.870Z,23.77
2023-04-02T07:02:04.227Z,19.75
2023-04-02T07:04:32.215Z,21.15
2023-04-02T07:07:01.008Z,22.92
2023-04-02T07:09:32.474Z,21.30
2023-04-02T07:12:02.144Z,23.13
2023-04-02T07:14:29.905Z,26.17
2023-04-02T07:16:57.049Z,22.55
2023-04-02T07:19:24.211Z,19.40
2023-04-02T07:21:55.520Z,17.58
2023-04-02T07:24:24.774Z,19.50
2023-04-02T07:26:51.991Z,17.10
2023-04-02T07:29:20.042Z,24.38
2023-04-02T07:31:47.438Z,19.77
2023-04-02T07:34:14.458Z,19.75
2023-04-02T07:36:41.860Z,22.30
2023-04-02T07:39:08.955Z,22.35
2023-04-02T07:41:52.231Z,20.05
2023-04-02T07:44:19.242Z,23.42
2023-04-02T07:46:46.293Z,21.52
2023-04-02T07:49:13.377Z,23.13
2023-04-02T07:51:40.474Z,17.52
2023-04-02T07:54:10.250Z,21.33
2023-04-02T07:56:37.725Z,23.70
2023-04-02T07:59:05.055Z,22.35
2023-04-02T08:01:35.535Z,23.02
2023-04-02T08:04:05.148Z,21.60
2023-04-02T08:06:35.217Z,20.20
2023-04-02T08:09:02.241Z,20.05
2023-04-02T08:11:31.512Z,24.20
2023-04-02T08:13:58.953Z,24.90
2023-04-02T08:16:26.075Z,23.92
2023-04-02T08:18:53.201Z,19.63
2023-04-02T08:21:20.643Z,26.83
2023-04-02T08:23:47.700Z,19.30
2023-04-02T08:26:18.915Z,26.20
2023-04-02T08:28:46.109Z,25.05
2023-04-02T08:31:13.593Z,23.20
2023-04-02T08:33:40.691Z,28.67
2023-04-02T08:36:07.920Z,26.20
2023-04-02T08:38:35.020Z,27.38
2023-04-02T08:41:04.754Z,36.30
2023-04-02T08:43:49.601Z,24.45
2023-04-02T08:46:44.916Z,24.13
2023-04-02T08:49:17.082Z,27.13
2023-04-02T08:51:46.327Z,24.17
2023-04-02T08:54:38.135Z,24.88
2023-04-02T08:57:16.721Z,22.88
2023-04-02T08:59:44.992Z,25.13
2023-04-02T09:02:30.984Z,26.88
2023-04-02T09:05:02.281Z,22.58
2023-04-02T09:07:33.196Z,24.20
2023-04-02T09:10:16.280Z,22.27
2023-04-02T09:12:49.457Z,25.52
2023-04-02T09:15:18.625Z,21.85
2023-04-02T09:17:53.654Z,23.77
2023-04-02T09:20:29.474Z,22.38
2023-04-02T09:25:33.520Z,21.35
2023-04-02T09:28:06.004Z,22.77
2023-04-02T09:30:32.980Z,21.10
2023-04-02T09:33:03.121Z,21.02
2023-04-02T09:35:35.209Z,28.77
2023-04-02T09:38:17.210Z,17.17
2023-04-02T09:40:56.299Z,19.90
2023-04-02T09:43:32.524Z,18.60
2023-04-02T09:46:03.864Z,20.27
2023-04-02T09:48:58.196Z,19.17
2023-04-02T09:51:28.074Z,21.55
2023-04-02T09:54:04.084Z,22.95
2023-04-02T09:56:39.027Z,22.67
2023-04-02T09:59:17.510Z,21.38
2023-04-02T10:01:53.673Z,20.67
2023-04-02T10:04:36.519Z,20.25
2023-04-02T10:07:06.588Z,17.25
2023-04-02T10:09:36.598Z,17.80
2023-04-02T10:12:11.048Z,19.98
2023-04-02T10:14:43.438Z,27.65
2023-04-02T10:17:22.097Z,21.63
2023-04-02T10:19:57.103Z,22.02
2023-04-02T10:22:24.249Z,22.02
2023-04-02T10:24:51.878Z,18.85
2023-04-02T10:27:34.466Z,19.20
2023-04-02T10:30:13.094Z,17.10
2023-04-02T10:32:56.716Z,19.17
2023-04-02T10:35:41.542Z,17.92
2023-04-02T10:38:23.862Z,20.83
2023-04-02T10:41:13.367Z,18.52
2023-04-02T10:44:06.153Z,19.85
2023-04-02T10:46:58.938Z,18.02
2023-04-02T10:49:41.333Z,20.85
2023-04-02T10:52:17.129Z,16.73
2023-04-02T10:54:47.102Z,19.05
2023-04-02T10:57:22.550Z,19.33
2023-04-02T11:00:06.883Z,19.92
2023-04-02T11:02:39.821Z,20.70
2023-04-02T11:05:23.844Z,16.02
2023-04-02T11:08:09.665Z,17.98
2023-04-02T11:10:43.266Z,22.27
2023-04-02T11:13:48.165Z,19.30
2023-04-02T11:16:15.659Z,17.60
2023-04-02T11:18:44.952Z,16.98
2023-04-02T11:21:51.423Z,19.50
2023-04-02T11:24:31.752Z,17.23
2023-04-02T11:27:26.597Z,18.48
2023-04-02T11:30:16.442Z,20.77
2023-04-02T11:32:49.723Z,19.83
2023-04-02T11:35:26.270Z,17.52
2023-04-02T11:37:56.303Z,15.57
2023-04-02T11:40:59.125Z,16.70
2023-04-02T11:43:35.983Z,14.75
2023-04-02T11:46:24.680Z,24.42
2023-04-02T11:48:51.809Z,18.65
2023-04-02T11:51:22.638Z,18.20
2023-04-02T11:53:51.804Z,17.92
2023-04-02T11:56:27.761Z,14.98
2023-04-02T11:59:13.284Z,16.38
2023-04-02T12:02:01.816Z,20.08
2023-04-02T12:04:47.344Z,22.60
2023-04-02T12:07:28.075Z,18.75
2023-04-02T12:10:00.892Z,17.88
2023-04-02T12:12:34.684Z,19.92
2023-04-02T12:15:02.382Z,15.65
2023-04-02T12:17:39.997Z,26.35
2023-04-02T12:20:08.514Z,19.48
2023-04-02T12:22:39.411Z,18.92
2023-04-02T12:25:40.952Z,19.63
2023-04-02T12:28:11.159Z,22.10
2023-04-02T12:30:39.234Z,21.88
2023-04-02T12:33:30.729Z,21.00
2023-04-02T12:36:00.083Z,20.25
2023-04-02T12:38:28.285Z,18.50
2023-04-02T12:41:04.693Z,18.33
2023-04-02T12:43:34.923Z,20.40
2023-04-02T12:46:07.326Z,21.90
2023-04-02T12:48:36.114Z,19.23
2023-04-02T12:51:04.388Z,24.52
2023-04-02T12:53:37.784Z,22.38
2023-04-02T12:56:06.239Z,20.63
2023-04-02T12:58:40.059Z,23.20
2023-04-02T13:01:23.846Z,18.58
2023-04-02T13:04:07.493Z,16.83
2023-04-02T13:06:36.426Z,17.30
2023-04-02T13:09:28.570Z,19.55
2023-04-02T13:11:56.197Z,17.17
2023-04-02T13:14:24.933Z,19.23
2023-04-02T13:16:52.217Z,21.38
2023-04-02T13:19:25.637Z,20.30
2023-04-02T13:21:59.872Z,20.65
2023-04-02T13:24:29.965Z,18.88
2023-04-02T13:26:59.941Z,21.20
2023-04-02T13:29:35.478Z,19.15
2023-04-02T13:32:07.016Z,18.80
2023-04-02T13:34:34.057Z,22.88
2023-04-02T13:37:01.200Z,18.95
2023-04-02T13:39:30.396Z,17.70
2023-04-02T13:42:02.979Z,20.85
2023-04-02T13:44:32.577Z,22.75
2023-04-02T13:47:00.316Z,23.95
2023-04-02T13:49:27.884Z,18.35
2023-04-02T13:52:05.435Z,22.08
2023-04-02T13:54:47.073Z,23.52
2023-04-02T13:57:14.492Z,23.13
2023-04-02T13:59:41.641Z,24.25
2023-04-02T14:02:17.426Z,20.73
2023-04-02T14:04:57.937Z,17.38
2023-04-02T14:07:26.050Z,20.67
2023-04-02T14:10:08.088Z,22.15
2023-04-02T14:12:52.690Z,20.60
2023-04-02T14:15:36.222Z,18.50
2023-04-02T14:18:31.980Z,18.30
2023-04-02T14:21:04.996Z,18.63
2023-04-02T14:24:08.758Z,20.17
2023-04-02T14:26:39.723Z,14.93
2023-04-02T14:29:35.654Z,16.80
2023-04-02T14:32:21.092Z,20.45
2023-04-02T14:35:07.209Z,22.42
2023-04-02T14:37:48.633Z,21.48
2023-04-02T14:40:34.368Z,14.57
2023-04-02T14:43:13.287Z,14.73
2023-04-02T14:46:05.348Z,22.25
2023-04-02T14:48:50.077Z,18.58
2023-04-02T14:51:50.080Z,16.40
2023-04-02T14:54:50.294Z,14.10
2023-04-02T14:57:29.266Z,14.88
2023-04-02T14:59:59.250Z,19.27
2023-04-02T15:02:45.040Z,18.02
2023-04-02T15:05:42.843Z,21.33
2023-04-02T15:08:28.299Z,14.50
2023-04-02T15:11:08.498Z,22.08
2023-04-02T15:13:47.173Z,23.52
2023-04-02T15:16:18.944Z,17.40
2023-04-02T15:18:49.513Z,18.60
2023-04-02T15:21:19.791Z,18.13
2023-04-02T15:23:58.893Z,21.88
2023-04-02T15:26:41.176Z,24.45
2023-04-02T15:29:28.340Z,19.42
2023-04-02T15:32:06.771Z,20.42
2023-04-02T15:35:05.068Z,19.88
2023-04-02T15:37:56.405Z,14.65
2023-04-02T15:40:38.237Z,14.30
2023-04-02T15:43:29.862Z,20.27
2023-04-02T15:46:07.490Z,15.05
2023-04-02T15:48:58.395Z,30.77
2023-04-02T15:51:34.427Z,21.77
2023-04-02T15:54:32.112Z,12.77
2023-04-02T15:57:13.934Z,19.80
2023-04-02T16:00:20.657Z,15.93
2023-04-02T16:03:03.318Z,16.45
2023-04-02T16:05:51.719Z,12.23
2023-04-02T16:08:21.899Z,20.20
2023-04-02T16:10:49.159Z,27.17
2023-04-02T16:13:29.929Z,23.67
2023-04-02T16:16:02.982Z,17.25
2023-04-02T16:18:48.226Z,15.40
2023-04-02T16:21:20.753Z,19.60
2023-04-02T16:23:48.564Z,15.80
2023-04-02T16:26:52.274Z,14.48
2023-04-02T16:29:28.183Z,22.05
2023-04-02T16:32:27.588Z,18.75
2023-04-02T16:35:32.584Z,18.67
2023-04-02T16:37:54.750Z,12.02
2023-04-02T16:41:08.364Z,13.32
2023-04-02T16:44:13.186Z,13.43
2023-04-02T16:46:55.727Z,23.77
2023-04-02T16:49:43.655Z,18.90
2023-04-02T16:52:29.395Z,18.05
2023-04-02T16:55:02.592Z,13.00
2023-04-02T16:57:52.182Z,15.82
2023-04-02T17:00:36.530Z,16.98
2023-04-02T17:03:37.521Z,8.32
2023-04-02T17:06:28.183Z,14.23
2023-04-02T17:09:08.330Z,19.67
2023-04-02T17:11:57.347Z,14.27
2023-04-02T17:14:53.212Z,9.30
2023-04-02T17:17:21.632Z,13.93
2023-04-02T17:19:52.195Z,11.30
2023-04-02T17:22:22.347Z,11.27
2023-04-02T17:24:57.949Z,12.70
2023-04-02T17:27:37.961Z,17.80
2023-04-02T17:30:18.611Z,12.75
2023-04-02T17:32:46.217Z,13.35
2023-04-02T17:35:25.167Z,14.10
2023-04-02T17:38:24.914Z,12.57
2023-04-02T17:41:16.994Z,14.75
2023-04-02T17:43:52.727Z,13.27
2023-04-02T17:46:37.550Z,14.25
2023-04-02T17:49:27.457Z,14.40
2023-04-02T17:52:22.462Z,13.63
2023-04-02T17:54:58.459Z,15.48
2023-04-02T17:57:31.588Z,12.05
2023-04-02T18:00:21.976Z,17.10
2023-04-02T18:03:10.639Z,14.10
2023-04-02T18:06:21.163Z,16.88
2023-04-02T18:08:58.657Z,14.93
2023-04-02T18:11:36.300Z,16.13
2023-04-02T18:14:22.510Z,10.13
2023-04-02T18:17:01.345Z,14.75
2023-04-02T18:19:33.285Z,11.00
2023-04-02T18:22:19.804Z,12.18
2023-04-02T18:25:05.105Z,12.88
2023-04-02T18:28:00.141Z,15.15
2023-04-02T18:30:36.024Z,14.75
2023-04-02T18:33:36.728Z,12.70
2023-04-02T18:36:27.602Z,15.27
2023-04-02T18:39:13.299Z,13.02
2023-04-02T18:42:13.887Z,11.07
2023-04-02T18:45:25.159Z,11.88
2023-04-02T18:48:29.034Z,13.18
2023-04-02T18:50:58.557Z,16.35
2023-04-02T18:53:26.665Z,17.27
2023-04-02T18:55:58.018Z,21.98
2023-04-02T18:59:06.482Z,12.77
2023-04-02T19:01:39.402Z,19.02
2023-04-02T19:04:23.391Z,15.43
2023-04-02T19:07:16.656Z,16.42
2023-04-02T19:09:48.808Z,15.48
2023-04-02T19:12:21.732Z,16.45
2023-04-02T19:14:51.130Z,10.93
2023-04-02T19:17:28.597Z,15.13
2023-04-02T19:20:17.068Z,13.82
2023-04-02T19:23:02.375Z,13.55
2023-04-02T19:25:38.468Z,10.98
2023-04-02T19:28:23.548Z,12.82
2023-04-02T19:31:09.432Z,16.95
2023-04-02T19:33:44.743Z,16.13
2023-04-02T19:36:42.807Z,15.57
2023-04-02T19:40:11.114Z,14.30
2023-04-02T19:42:48.483Z,12.95
2023-04-02T19:45:30.548Z,14.80
2023-04-02T19:48:00.955Z,16.73
2023-04-02T19:50:29.005Z,17.05
2023-04-02T19:52:56.120Z,11.52
2023-04-02T19:55:23.173Z,12.27
2023-04-02T19:57:51.393Z,13.93
2023-04-02T20:00:20.062Z,17.95
2023-04-02T20:02:47.225Z,14.82
2023-04-02T20:05:14.441Z,13.60
2023-04-02T20:07:41.596Z,14.30
2023-04-02T20:10:09.483Z,15.95
2023-04-02T20:12:36.653Z,16.60
2023-04-02T20:15:05.661Z,14.27
2023-04-02T20:17:32.789Z,13.05
2023-04-02T20:19:59.862Z,15.60
2023-04-02T20:22:26.869Z,14.57
2023-04-02T20:24:56.049Z,11.85
2023-04-02T20:27:23.096Z,15.77
2023-04-02T20:29:50.138Z,12.50
2023-04-02T20:32:17.858Z,16.35
2023-04-02T20:34:45.345Z,15.65
2023-04-02T20:37:12.609Z,16.25
2023-04-02T20:39:39.778Z,10.77
2023-04-02T20:42:07.123Z,12.32
2023-04-02T20:44:34.248Z,11.77
2023-04-02T20:47:01.917Z,12.30
2023-04-02T20:49:29.065Z,13.13
2023-04-02T20:51:56.182Z,15.02
2023-04-02T20:54:23.276Z,14.20
2023-04-02T20:56:50.608Z,24.38
2023-04-02T20:59:18.209Z,11.65
2023-04-02T21:01:45.836Z,14.02
2023-04-02T21:04:14.247Z,13.65
2023-04-02T21:06:41.439Z,19.23
2023-04-02T21:09:14.824Z,21.70
2023-04-02T21:11:42.513Z,13.93
2023-04-02T21:14:10.576Z,14.63
2023-04-02T21:16:37.905Z,12.77
2023-04-02T21:19:07.742Z,14.63
2023-04-02T21:21:36.564Z,16.08
2023-04-02T21:24:06.189Z,17.25
2023-04-02T21:26:36.629Z,16.50
2023-04-02T21:29:04.397Z,14.38
2023-04-02T21:31:35.752Z,14.45
2023-04-02T21:34:04.073Z,16.35
2023-04-02T21:36:40.899Z,12.75
2023-04-02T21:39:10.688Z,20.10
2023-04-02T21:41:40.717Z,13.20
2023-04-02T21:44:09.752Z,16.55
2023-04-02T21:46:39.309Z,12.82
2023-04-02T21:49:10.027Z,12.98
2023-04-02T21:51:38.407Z,15.82
2023-04-02T21:54:06.632Z,10.30
2023-04-02T21:56:39.368Z,10.75
2023-04-02T21:59:08.019Z,11.70
2023-04-02T22:01:38.130Z,12.73
2023-04-02T22:04:08.294Z,14.38
2023-04-02T22:06:41.313Z,13.48
2023-04-02T22:09:11.797Z,12.57
2023-04-02T22:11:42.890Z,16.52
2023-04-02T22:14:10.414Z,12.15
2023-04-02T22:16:38.395Z,13.68
2023-04-02T22:19:08.331Z,15.40
2023-04-02T22:21:36.789Z,14.88
2023-04-02T22:24:06.864Z,15.93
2023-04-02T22:26:34.273Z,16.27
2023-04-02T22:29:01.809Z,16.42
2023-04-02T22:31:31.484Z,12.27
2023-04-02T22:33:59.783Z,14.90
2023-04-02T22:36:28.305Z,13.68
2023-04-02T22:38:56.086Z,13.13
2023-04-02T22:41:28.636Z,12.55
2023-04-02T22:43:57.004Z,16.33
2023-04-02T22:46:26.808Z,12.45
2023-04-02T22:48:54.609Z,18.67
2023-04-02T22:51:23.285Z,12.25
2023-04-02T22:53:53.793Z,15.68
2023-04-02T22:56:24.173Z,14.43
2023-04-02T22:58:51.171Z,13.02
2023-04-02T23:01:31.534Z,14.82
2023-04-02T23:03:58.621Z,15.73
2023-04-02T23:06:26.479Z,14.57
2023-04-02T23:08:53.760Z,17.13
2023-04-02T23:11:23.496Z,12.75
2023-04-02T23:13:53.134Z,17.70
2023-04-02T23:16:21.436Z,13.73
2023-04-02T23:18:49.362Z,15.65
2023-04-02T23:21:17.679Z,14.85
2023-04-02T23:23:45.432Z,15.18
2023-04-02T23:26:13.562Z,13.93
2023-04-02T23:28:41.307Z,16.80
2023-04-02T23:31:12.188Z,14.82
2023-04-02T23:33:39.797Z,13.45
2023-04-02T23:36:09.051Z,13.70
2023-04-02T23:38:36.226Z,14.50
2023-04-02T23:41:03.519Z,16.50
2023-04-02T23:43:30.593Z,14.98
2023-04-02T23:45:57.924Z,13.43
2023-04-02T23:48:24.972Z,13.77
2023-04-02T23:50:51.991Z,23.45
2023-04-02T23:53:19.151Z,18.83
2023-04-02T23:55:46.204Z,18.63
2023-04-02T23:58:13.290Z,19.05
